This is the latest recevied weather packets stored in our database for station/object W5HKR. If no packets are shown the sender has not sent any weather packets the latest 10 day(s).
| Time | Temp. | Humidity | Pressure | Rain* | Wind** | Luminosity | Snow |
|---|---|---|---|---|---|---|---|
| 1777066702 | 18.33° C | 91% | 990.6 hPa | 0 mm | - | - | - |
| 1777066471 | 32.22° C | 53% | 977.1 hPa | 0 mm | - | - | - |
| 1777066401 | 18.33° C | 91% | 990.6 hPa | 0 mm | - | - | - |
| 1777066099 | 18.33° C | 91% | 990.6 hPa | 0 mm | - | - | - |
| 1777065799 | 18.33° C | 91% | 990.6 hPa | 0 mm | - | - | - |
| 1777065499 | 18.33° C | 91% | 990.6 hPa | 0 mm | - | - | - |
| 1777065394 | 18.33° C | 91% | 990.6 hPa | 0 mm | - | - | - |
| 1777064600 | 32.78° C | 52% | 978 hPa | 0 mm | - | - | - |
| 1777064310 | 18.33° C | 91% | 990.6 hPa | 0 mm | - | - | - |
| 1777064001 | 18.33° C | 91% | 990.6 hPa | 0 mm | - | - | - |
| 1777063700 | 18.33° C | 91% | 990.6 hPa | 0 mm | - | - | - |
| 1777063400 | 18.33° C | 91% | 990.6 hPa | 0 mm | - | - | - |
| 1777063231 | 32.78° C | 52% | 978.1 hPa | 0 mm | - | - | - |
| 1777063100 | 32.78° C | 55% | 978.2 hPa | 0 mm | - | - | - |
| 1777062799 | 18.33° C | 91% | 990.6 hPa | 0 mm | - | - | - |
| 1777062501 | 18.33° C | 91% | 990.6 hPa | 0 mm | - | - | - |
| 1777062200 | 18.33° C | 91% | 990.6 hPa | 0 mm | - | - | - |
| 1777062152 | 32.78° C | 54% | 978.3 hPa | 0 mm | - | - | - |
| 1777061900 | 18.33° C | 91% | 990.6 hPa | 0 mm | - | - | - |
| 1777061599 | 31.67° C | 55% | 978.3 hPa | 0 mm | - | - | - |
| 1777061300 | 32.22° C | 54% | 978.3 hPa | 0 mm | - | - | - |
| 1777061071 | 18.33° C | 91% | 990.6 hPa | 0 mm | - | - | - |
| 1777061000 | 32.78° C | 54% | 978.7 hPa | 0 mm | - | - | - |
| 1777060699 | 18.33° C | 91% | 990.6 hPa | 0 mm | - | - | - |
| 1777060402 | 31.67° C | 55% | 978.5 hPa | 0 mm | - | - | - |
* Rain latest hour (hover to see other rain measurements)
** Current wind speed in m/s (hover to see current wind gust speed)